Time;durP1;ratioP1;P1;durP2;ratioP2;P2;SDS_P1;SDS_P2;PMS_P1;PMS_P2;Temp;Humidity;BMP_temperature;BMP_pressure;BME280_temperature;BME280_humidity;BME280_pressure;Samples;Min_cycle;Max_cycle;Signal;HPM_P1;HPM_P2
2023/04/16 00:00:36;;;;;;;15.80;9.10;;;;;;;7.11;100.00;98315.06;4161957;28;20076;-73
2023/04/16 00:02:37;;;;;;;14.98;9.57;;;;;;;7.07;100.00;98317.75;4160605;28;20045;-73
2023/04/16 00:04:37;;;;;;;15.07;9.65;;;;;;;7.10;100.00;98317.03;4160182;28;20042;-74
2023/04/16 00:06:38;;;;;;;16.95;9.35;;;;;;;7.17;100.00;98316.41;4159387;28;20049;-73
2023/04/16 00:08:39;;;;;;;17.02;10.10;;;;;;;7.20;100.00;98316.50;4159790;28;20049;-73
2023/04/16 00:10:40;;;;;;;17.27;10.52;;;;;;;7.19;100.00;98325.06;4164304;28;20083;-74
2023/04/16 00:12:41;;;;;;;20.00;10.18;;;;;;;7.18;100.00;98323.50;4162452;28;20357;-73
2023/04/16 00:14:42;;;;;;;17.77;10.93;;;;;;;7.15;100.00;98327.75;4162706;28;20143;-73
2023/04/16 00:16:42;;;;;;;17.42;10.95;;;;;;;7.21;100.00;98317.28;4162539;28;20124;-73
2023/04/16 00:18:42;;;;;;;15.82;10.57;;;;;;;7.22;100.00;98324.38;4159486;28;20493;-73
2023/04/16 00:20:43;;;;;;;17.33;10.35;;;;;;;7.21;100.00;98320.03;4163175;28;20049;-74
2023/04/16 00:22:43;;;;;;;19.42;11.07;;;;;;;7.17;100.00;98325.44;4158655;28;20470;-73
2023/04/16 00:24:44;;;;;;;18.02;10.63;;;;;;;7.13;100.00;98324.59;4165977;28;20140;-74
2023/04/16 00:26:45;;;;;;;19.48;11.05;;;;;;;7.15;100.00;98326.97;4161194;28;20088;-73
2023/04/16 00:28:45;;;;;;;17.23;10.52;;;;;;;7.14;100.00;98322.63;4161036;28;20366;-73
2023/04/16 00:30:45;;;;;;;15.48;9.95;;;;;;;7.18;100.00;98320.75;4161047;28;20052;-74
2023/04/16 00:32:46;;;;;;;16.88;10.25;;;;;;;7.17;100.00;98316.41;4158975;28;20037;-73
2023/04/16 00:34:46;;;;;;;16.05;9.38;;;;;;;7.24;100.00;98325.59;4168015;28;20076;-73
2023/04/16 00:36:46;;;;;;;15.02;9.85;;;;;;;7.23;100.00;98318.50;4159781;28;20435;-73
2023/04/16 00:38:47;;;;;;;16.30;9.95;;;;;;;7.28;100.00;98331.19;4160376;28;20033;-73
2023/04/16 00:40:47;;;;;;;16.05;9.35;;;;;;;7.22;100.00;98332.63;4159614;28;20053;-73
2023/04/16 00:42:47;;;;;;;15.43;9.80;;;;;;;7.25;100.00;98329.94;4163561;28;20476;-73
2023/04/16 00:44:48;;;;;;;13.93;8.43;;;;;;;7.29;100.00;98328.09;4161740;28;20045;-73
2023/04/16 00:46:48;;;;;;;13.65;8.65;;;;;;;7.33;100.00;98328.16;4161449;28;20057;-73
2023/04/16 00:48:50;;;;;;;12.23;8.18;;;;;;;7.24;100.00;98330.31;4159231;28;20076;-73
2023/04/16 00:50:50;;;;;;;14.20;8.68;;;;;;;7.24;100.00;98330.31;4160170;28;20080;-73
2023/04/16 00:52:51;;;;;;;14.85;8.32;;;;;;;7.17;100.00;98325.44;4159015;28;20034;-74
2023/04/16 00:54:52;;;;;;;13.60;8.90;;;;;;;7.19;100.00;98334.13;4159115;28;20044;-73
2023/04/16 00:56:52;;;;;;;12.75;8.52;;;;;;;7.16;100.00;98323.84;4160694;28;20489;-73
2023/04/16 00:58:55;;;;;;;12.93;8.82;;;;;;;7.18;100.00;98332.53;4160512;28;20049;-73
2023/04/16 01:00:55;;;;;;;15.35;9.05;;;;;;;7.14;100.00;98328.94;4158080;28;20468;-73
2023/04/16 01:02:56;;;;;;;12.95;8.77;;;;;;;7.15;100.00;98321.47;4159339;28;20053;-74
2023/04/16 01:04:56;;;;;;;11.40;7.72;;;;;;;7.14;100.00;98333.63;4158396;28;20053;-73
2023/04/16 01:06:56;;;;;;;15.32;8.38;;;;;;;7.15;100.00;98333.28;4159910;28;20051;-73
2023/04/16 01:08:57;;;;;;;13.20;8.38;;;;;;;7.12;100.00;98328.50;4159053;28;20087;-73
2023/04/16 01:10:57;;;;;;;13.00;8.13;;;;;;;7.22;100.00;98321.63;4164155;28;20305;-73
2023/04/16 01:12:57;;;;;;;14.00;8.80;;;;;;;7.20;100.00;98324.75;4164566;28;20045;-73
2023/04/16 01:14:58;;;;;;;12.45;7.70;;;;;;;7.15;100.00;98326.97;4160095;28;20120;-73
2023/04/16 01:16:58;;;;;;;13.45;8.95;;;;;;;7.15;100.00;98335.22;4161127;28;20054;-73
2023/04/16 01:18:58;;;;;;;14.63;9.23;;;;;;;7.15;100.00;98333.28;4159207;28;20073;-73
2023/04/16 01:20:59;;;;;;;15.57;9.35;;;;;;;7.16;100.00;98323.06;4160129;28;20084;-73
2023/04/16 01:22:59;;;;;;;15.52;10.10;;;;;;;7.20;100.00;98326.66;4158425;28;20493;-73
2023/04/16 01:25:00;;;;;;;16.77;10.35;;;;;;;7.20;100.00;98334.94;4162906;28;20045;-74
2023/04/16 01:27:00;;;;;;;17.58;11.32;;;;;;;7.21;100.00;98328.28;4160046;28;20508;-73
2023/04/16 01:29:01;;;;;;;18.40;11.13;;;;;;;7.21;100.00;98337.34;4160345;28;20506;-73
2023/04/16 01:31:02;;;;;;;16.25;10.57;;;;;;;7.20;100.00;98334.94;4161279;28;20068;-73
2023/04/16 01:33:02;;;;;;;18.40;11.13;;;;;;;7.20;100.00;98329.44;4157752;28;20041;-73
2023/04/16 01:35:03;;;;;;;20.33;12.63;;;;;;;7.19;100.00;98334.13;4160784;28;20485;-73
2023/04/16 01:37:04;;;;;;;20.23;12.30;;;;;;;7.20;100.00;98324.75;4163472;28;20405;-73
2023/04/16 01:39:04;;;;;;;20.30;12.85;;;;;;;7.30;100.00;98342.66;4159055;28;20359;-74
2023/04/16 01:41:04;;;;;;;26.13;14.25;;;;;;;7.22;100.00;98336.19;4160240;28;20041;-73
2023/04/16 01:43:05;;;;;;;22.80;14.02;;;;;;;7.21;100.00;98337.34;4158388;28;20489;-73
2023/04/16 01:45:06;;;;;;;21.52;13.55;;;;;;;7.22;100.00;98330.69;4161652;28;20047;-74
2023/04/16 01:47:07;;;;;;;24.85;14.50;;;;;;;7.24;100.00;98338.56;4161460;28;20394;-73
2023/04/16 01:49:07;;;;;;;24.13;15.18;;;;;;;7.18;100.00;98342.75;4158533;28;20084;-74
2023/04/16 01:51:08;;;;;;;27.13;15.77;;;;;;;7.29;100.00;98335.56;4160161;28;20041;-74
2023/04/16 01:53:09;;;;;;;27.63;17.40;;;;;;;7.29;100.00;98352.06;4159989;28;20301;-73
2023/04/16 01:55:09;;;;;;;27.00;16.75;;;;;;;7.18;100.00;98346.28;4161012;28;20049;-74
2023/04/16 01:57:10;;;;;;;30.98;17.67;;;;;;;7.19;100.00;98347.88;4160242;28;20049;-74
2023/04/16 01:59:11;;;;;;;36.72;19.40;;;;;;;7.16;100.00;98356.06;4160548;28;20099;-74
2023/04/16 02:01:12;;;;;;;37.22;20.77;;;;;;;7.17;100.00;98355.72;4158535;28;20076;-74
2023/04/16 02:03:12;;;;;;;36.75;20.50;;;;;;;7.14;100.00;98352.91;4157993;28;20441;-74
2023/04/16 02:05:13;;;;;;;36.65;20.08;;;;;;;7.17;100.00;98343.91;4161213;28;20126;-74
2023/04/16 02:07:13;;;;;;;34.38;20.10;;;;;;;7.16;100.00;98345.88;4160620;28;20056;-73
2023/04/16 02:09:14;;;;;;;37.30;21.08;;;;;;;7.11;100.00;98351.63;4158793;28;20045;-74
2023/04/16 02:11:14;;;;;;;39.78;19.35;;;;;;;7.14;100.00;98356.44;4166767;28;20129;-74
2023/04/16 02:13:15;;;;;;;40.05;21.75;;;;;;;7.10;100.00;98341.78;4161035;28;20483;-74
2023/04/16 02:15:16;;;;;;;37.42;20.85;;;;;;;7.12;100.00;98347.75;4159431;28;20053;-74
2023/04/16 02:17:16;;;;;;;33.92;20.33;;;;;;;7.19;100.00;98360.84;4161541;28;20049;-74
2023/04/16 02:19:16;;;;;;;37.50;20.23;;;;;;;7.16;100.00;98359.63;4162752;28;20045;-73
2023/04/16 02:21:17;;;;;;;35.67;20.98;;;;;;;7.12;100.00;98344.22;4165309;28;20046;-74
2023/04/16 02:23:17;;;;;;;36.70;19.52;;;;;;;7.15;100.00;98344.28;4163043;28;20037;-74
2023/04/16 02:25:17;;;;;;;40.13;21.77;;;;;;;7.17;100.00;98355.72;4164474;28;20053;-74
2023/04/16 02:27:18;;;;;;;37.90;19.40;;;;;;;7.16;100.00;98362.38;4163597;28;20049;-74
2023/04/16 02:29:18;;;;;;;35.42;19.27;;;;;;;7.21;100.00;98362.09;4162210;28;20096;-73
2023/04/16 02:31:18;;;;;;;35.00;19.75;;;;;;;7.15;100.00;98357.22;4162809;28;20504;-74
2023/04/16 02:33:19;;;;;;;37.30;21.15;;;;;;;7.17;100.00;98363.97;4164004;28;20041;-74
2023/04/16 02:35:19;;;;;;;37.10;19.88;;;;;;;7.22;100.00;98366.44;4166379;28;20520;-73
2023/04/16 02:37:19;;;;;;;37.67;19.92;;;;;;;7.17;100.00;98361.22;4162205;28;20072;-74
2023/04/16 02:39:20;;;;;;;33.35;18.70;;;;;;;7.18;100.00;98362.00;4161490;28;20029;-74
2023/04/16 02:41:21;;;;;;;37.40;19.48;;;;;;;7.13;100.00;98365.06;4160094;28;20072;-73
2023/04/16 02:43:21;;;;;;;37.47;19.77;;;;;;;7.13;100.00;98368.59;4163063;28;20052;-74
2023/04/16 02:45:22;;;;;;;35.05;19.38;;;;;;;7.12;100.00;98357.97;4146598;28;20094;-74
2023/04/16 02:47:22;;;;;;;36.20;19.58;;;;;;;7.14;100.00;98375.69;4161795;28;20068;-74
2023/04/16 02:49:23;;;;;;;37.15;19.63;;;;;;;7.12;100.00;98369.75;4164200;28;20052;-74
2023/04/16 02:51:23;;;;;;;36.00;20.20;;;;;;;7.06;100.00;98373.94;4161836;28;20414;-73
2023/04/16 02:53:23;;;;;;;37.90;21.30;;;;;;;7.07;100.00;98371.97;4160450;28;20037;-74
2023/04/16 02:55:24;;;;;;;34.60;19.27;;;;;;;7.08;100.00;98379.06;4162313;28;20053;-74
2023/04/16 02:57:24;;;;;;;36.63;19.02;;;;;;;7.10;100.00;98376.75;4162964;28;20048;-74
2023/04/16 02:59:25;;;;;;;36.25;20.05;;;;;;;7.12;100.00;98385.47;4161040;28;20037;-73
2023/04/16 03:01:27;;;;;;;35.30;19.42;;;;;;;7.13;100.00;98381.56;4162700;28;20133;-74
2023/04/16 03:03:27;;;;;;;34.28;19.05;;;;;;;7.08;100.00;98373.56;4160760;28;20045;-74
2023/04/16 03:05:27;;;;;;;39.47;20.48;;;;;;;7.07;100.00;98385.72;4164730;28;20103;-74
2023/04/16 03:07:28;;;;;;;37.40;19.50;;;;;;;7.06;100.00;98378.66;4161596;28;20488;-73
2023/04/16 03:09:28;;;;;;;33.42;18.38;;;;;;;7.09;100.00;98380.66;4161765;28;20124;-74
2023/04/16 03:11:28;;;;;;;30.63;17.88;;;;;;;7.11;100.00;98375.59;4161593;28;20116;-74
2023/04/16 03:13:29;;;;;;;32.92;18.77;;;;;;;7.09;100.00;98381.47;4165451;28;20076;-73
2023/04/16 03:15:30;;;;;;;34.28;18.27;;;;;;;7.07;100.00;98392.03;4162582;28;20054;-73
2023/04/16 03:17:30;;;;;;;32.42;19.40;;;;;;;7.06;100.00;98384.94;4160649;28;20053;-74
2023/04/16 03:19:31;;;;;;;35.45;18.85;;;;;;;7.09;100.00;98394.41;4175844;28;20052;-74
2023/04/16 03:21:31;;;;;;;33.38;19.23;;;;;;;7.07;100.00;98389.28;4164565;28;20046;-74
2023/04/16 03:23:31;;;;;;;33.95;19.42;;;;;;;7.08;100.00;98384.56;4160545;28;20035;-74
2023/04/16 03:25:32;;;;;;;34.38;18.98;;;;;;;7.10;100.00;98394.06;4163793;28;20914;-74
2023/04/16 03:27:33;;;;;;;34.72;19.75;;;;;;;7.10;100.00;98398.78;4159357;28;20045;-74
2023/04/16 03:29:36;;;;;;;35.05;21.08;;;;;;;7.10;100.00;98390.50;4159705;28;20445;-73
2023/04/16 03:31:37;;;;;;;36.90;20.10;;;;;;;7.11;100.00;98395.66;4161102;28;20045;-74
2023/04/16 03:33:37;;;;;;;33.97;19.95;;;;;;;7.11;100.00;98398.41;4160497;28;20508;-74
2023/04/16 03:35:37;;;;;;;36.00;19.33;;;;;;;7.11;100.00;98395.66;4145814;28;20105;-74
2023/04/16 03:37:38;;;;;;;38.40;19.52;;;;;;;7.13;100.00;98401.63;4161338;28;20057;-74
2023/04/16 03:39:38;;;;;;;34.55;19.00;;;;;;;7.15;100.00;98409.50;4161904;28;20446;-73
2023/04/16 03:41:38;;;;;;;32.10;18.52;;;;;;;7.12;100.00;98402.78;4165402;28;20107;-74
2023/04/16 03:43:39;;;;;;;33.00;18.10;;;;;;;7.12;100.00;98402.78;4158608;28;20025;-74
2023/04/16 03:45:46;;;;;;;34.30;18.45;;;;;;;7.11;100.00;98403.91;4160783;28;20070;-74
2023/04/16 03:47:51;;;;;;;36.53;18.88;;;;;;;7.09;100.00;98411.72;4162534;28;20053;-74
2023/04/16 03:49:51;;;;;;;31.00;18.13;;;;;;;7.09;100.00;98405.44;4162475;28;20517;-74
2023/04/16 03:51:51;;;;;;;34.60;18.75;;;;;;;7.05;100.00;98408.09;4160838;28;20072;-73
2023/04/16 03:53:52;;;;;;;29.27;17.52;;;;;;;7.08;100.00;98407.38;4161114;28;20045;-74
2023/04/16 03:55:52;;;;;;;31.50;18.05;;;;;;;7.10;100.00;98407.81;4160007;28;20520;-74
2023/04/16 03:57:53;;;;;;;29.35;17.20;;;;;;;7.15;100.00;98415.81;4160500;28;20366;-74
2023/04/16 03:59:53;;;;;;;34.67;19.73;;;;;;;7.14;100.00;98411.47;4160988;28;20579;-74
2023/04/16 04:01:53;;;;;;;29.55;16.98;;;;;;;7.17;100.00;98415.44;4140594;28;20123;-74
2023/04/16 04:03:54;;;;;;;26.35;15.30;;;;;;;7.11;100.00;98417.66;4163250;28;20064;-74
2023/04/16 04:05:54;;;;;;;26.17;15.25;;;;;;;7.13;100.00;98425.59;4161898;28;20069;-74
2023/04/16 04:07:54;;;;;;;23.50;14.38;;;;;;;7.19;100.00;98429.63;4159478;28;20056;-74
2023/04/16 04:09:55;;;;;;;24.70;14.98;;;;;;;7.21;100.00;98430.91;4160423;28;20202;-73
2023/04/16 04:11:55;;;;;;;20.60;12.80;;;;;;;7.18;100.00;98431.59;4161159;28;20075;-74
2023/04/16 04:13:55;;;;;;;20.35;11.52;;;;;;;7.17;100.00;98429.22;4158525;28;20401;-74
2023/04/16 04:15:56;;;;;;;16.77;10.38;;;;;;;7.13;100.00;98434.63;4164146;28;20049;-74
2023/04/16 04:17:56;;;;;;;17.67;10.50;;;;;;;7.13;100.00;98437.38;4161154;28;20053;-74
2023/04/16 04:19:56;;;;;;;12.80;9.35;;;;;;;7.17;100.00;98431.97;4159835;28;20056;-74
2023/04/16 04:21:57;;;;;;;12.13;8.43;;;;;;;7.16;100.00;98442.16;4163825;28;20056;-74
2023/04/16 04:23:57;;;;;;;11.48;7.97;;;;;;;7.20;100.00;98445.00;4159794;28;20033;-74
2023/04/16 04:25:58;;;;;;;11.73;7.93;;;;;;;7.24;100.00;98448.66;4160252;28;20474;-73
2023/04/16 04:27:58;;;;;;;13.70;9.68;;;;;;;7.20;100.00;98439.50;4159206;28;20071;-74
2023/04/16 04:29:58;;;;;;;13.15;8.57;;;;;;;7.23;100.00;98442.34;4160182;28;20068;-73
2023/04/16 04:31:59;;;;;;;12.50;8.75;;;;;;;7.19;100.00;98440.66;4165163;28;20052;-74
2023/04/16 04:33:59;;;;;;;11.23;8.15;;;;;;;7.17;100.00;98445.72;4161598;28;20095;-73
2023/04/16 04:35:59;;;;;;;14.00;9.05;;;;;;;7.22;100.00;98449.00;4161405;28;20053;-73
2023/04/16 04:38:00;;;;;;;13.98;8.27;;;;;;;7.21;100.00;98446.63;4160738;28;20037;-73
2023/04/16 04:40:00;;;;;;;11.82;7.90;;;;;;;7.21;100.00;98452.91;4146674;28;20045;-74
2023/04/16 04:42:02;;;;;;;12.35;8.27;;;;;;;7.22;100.00;98449.00;4159528;28;20037;-74
2023/04/16 04:44:02;;;;;;;12.82;8.60;;;;;;;7.19;100.00;98449.69;4159234;28;20081;-74
2023/04/16 04:46:02;;;;;;;10.45;7.45;;;;;;;7.16;100.00;98453.19;4159481;28;20065;-73
2023/04/16 04:48:03;;;;;;;12.60;8.48;;;;;;;7.14;100.00;98451.94;4159333;28;20080;-74
2023/04/16 04:50:04;;;;;;;12.20;8.27;;;;;;;7.22;100.00;98462.75;4164081;28;20064;-74
2023/04/16 04:52:05;;;;;;;15.73;9.55;;;;;;;7.25;100.00;98455.75;4159410;28;20040;-73
2023/04/16 04:54:05;;;;;;;12.93;8.95;;;;;;;7.20;100.00;98456.81;4159614;28;20485;-74
2023/04/16 04:56:06;;;;;;;13.48;9.20;;;;;;;7.19;100.00;98463.47;4160770;28;20033;-73
2023/04/16 04:58:07;;;;;;;13.18;9.10;;;;;;;7.20;100.00;98465.09;4163396;28;20099;-74
2023/04/16 05:00:08;;;;;;;12.43;9.20;;;;;;;7.15;100.00;98459.84;4166232;28;20037;-73
2023/04/16 05:02:08;;;;;;;12.65;8.52;;;;;;;7.15;100.00;98470.03;4163160;28;20028;-74
2023/04/16 05:04:08;;;;;;;11.85;8.85;;;;;;;7.15;100.00;98470.84;4164604;28;20458;-74
2023/04/16 05:06:09;;;;;;;11.95;8.15;;;;;;;7.16;100.00;98461.44;4159742;28;20017;-74
2023/04/16 05:08:09;;;;;;;13.48;8.88;;;;;;;7.12;100.00;98476.28;4159400;28;20025;-74
2023/04/16 05:10:09;;;;;;;14.60;9.70;;;;;;;7.11;100.00;98471.91;4163484;28;20053;-74
2023/04/16 05:12:09;;;;;;;11.68;8.27;;;;;;;7.07;100.00;98469.06;4163370;28;20454;-74
2023/04/16 05:14:10;;;;;;;12.68;8.40;;;;;;;7.08;100.00;98475.38;4160495;28;20057;-73
2023/04/16 05:16:10;;;;;;;13.25;8.65;;;;;;;7.08;100.00;98484.41;4159742;28;20076;-74
2023/04/16 05:18:10;;;;;;;13.13;9.05;;;;;;;7.16;100.00;98479.91;4161209;28;20022;-74
2023/04/16 05:20:11;;;;;;;11.70;8.60;;;;;;;7.16;100.00;98488.16;4159412;28;20522;-73
2023/04/16 05:22:11;;;;;;;13.57;9.02;;;;;;;7.20;100.00;98483.53;4158346;28;20057;-73
2023/04/16 05:24:11;;;;;;;12.30;8.85;;;;;;;7.16;100.00;98491.69;4160684;28;20057;-74
2023/04/16 05:26:12;;;;;;;11.63;8.50;;;;;;;7.10;100.00;98489.56;4160884;28;20092;-74
2023/04/16 05:28:12;;;;;;;12.98;8.88;;;;;;;7.08;100.00;98494.63;4158066;28;20033;-73
2023/04/16 05:30:12;;;;;;;14.00;9.63;;;;;;;7.08;100.00;98489.91;4163225;28;20465;-73
2023/04/16 05:32:13;;;;;;;12.35;8.90;;;;;;;7.07;100.00;98496.56;4160151;28;20069;-73
2023/04/16 05:34:13;;;;;;;11.98;9.10;;;;;;;7.17;100.00;98507.03;4158509;28;20055;-73
2023/04/16 05:36:14;;;;;;;12.48;8.48;;;;;;;7.16;100.00;98505.44;4158331;28;20226;-74
2023/04/16 05:38:14;;;;;;;14.85;9.68;;;;;;;7.08;100.00;98508.38;4160583;28;20039;-73
2023/04/16 05:40:14;;;;;;;13.98;9.32;;;;;;;7.10;100.00;98508.81;4156506;28;20041;-74
2023/04/16 05:42:15;;;;;;;14.45;8.90;;;;;;;7.08;100.00;98511.94;4158311;28;20076;-74
2023/04/16 05:44:15;;;;;;;12.98;9.65;;;;;;;7.10;100.00;98517.06;4161941;28;20029;-74
2023/04/16 05:46:15;;;;;;;15.98;9.23;;;;;;;7.11;100.00;98516.72;4163417;28;20695;-74
2023/04/16 05:48:16;;;;;;;12.55;8.80;;;;;;;7.13;100.00;98522.69;4159818;28;20057;-74
2023/04/16 05:50:16;;;;;;;12.88;9.32;;;;;;;7.12;100.00;98523.84;4160975;28;20347;-74
2023/04/16 05:52:16;;;;;;;14.07;8.75;;;;;;;7.08;100.00;98522.13;4161417;28;20030;-74
2023/04/16 05:54:17;;;;;;;13.18;9.07;;;;;;;7.13;100.00;98527.38;4160967;28;20040;-74
2023/04/16 05:56:17;;;;;;;13.25;9.70;;;;;;;7.14;100.00;98532.53;4165006;28;20132;-74
2023/04/16 05:58:17;;;;;;;12.43;8.63;;;;;;;7.05;100.00;98523.66;4164423;28;20113;-74
2023/04/16 06:00:18;;;;;;;12.82;8.82;;;;;;;7.09;100.00;98538.28;4166354;28;20044;-74
2023/04/16 06:02:18;;;;;;;12.43;8.18;;;;;;;7.09;100.00;98531.97;4165137;28;20108;-74
2023/04/16 06:04:19;;;;;;;12.02;8.20;;;;;;;7.08;100.00;98528.44;4163477;28;20033;-74
2023/04/16 06:06:19;;;;;;;14.07;8.85;;;;;;;7.02;100.00;98529.84;4165375;28;20055;-74
2023/04/16 06:08:19;;;;;;;11.30;7.95;;;;;;;7.09;100.00;98537.47;4110090;27;20021;-74
2023/04/16 06:10:20;;;;;;;13.77;9.02;;;;;;;7.15;100.00;98539.63;4165309;28;20284;-74
2023/04/16 06:12:21;;;;;;;13.23;8.35;;;;;;;7.11;100.00;98546.97;4163618;28;20084;-74
2023/04/16 06:14:21;;;;;;;13.40;9.35;;;;;;;7.05;100.00;98551.16;4163348;28;20081;-74
2023/04/16 06:16:21;;;;;;;16.85;10.75;;;;;;;7.03;100.00;98546.03;4164993;28;20195;-74
2023/04/16 06:18:22;;;;;;;15.75;10.48;;;;;;;7.00;100.00;98548.66;4168442;28;20725;-74
2023/04/16 06:20:22;;;;;;;15.73;9.93;;;;;;;7.03;100.00;98558.94;4161452;28;20050;-74
2023/04/16 06:22:23;;;;;;;13.82;9.07;;;;;;;6.95;100.00;98559.91;4162180;28;20639;-74
2023/04/16 06:24:23;;;;;;;13.35;8.95;;;;;;;6.95;100.00;98560.72;4161185;28;20056;-74
2023/04/16 06:26:23;;;;;;;16.02;11.27;;;;;;;6.96;100.00;98556.03;4165135;28;20047;-74
2023/04/16 06:28:24;;;;;;;15.52;10.35;;;;;;;6.95;100.00;98554.41;4162703;28;20396;-76
2023/04/16 06:30:24;;;;;;;17.70;10.27;;;;;;;6.99;100.00;98558.06;4162343;28;20462;-75
2023/04/16 06:32:25;;;;;;;15.50;9.57;;;;;;;7.01;100.00;98575.81;4164447;28;20057;-75
2023/04/16 06:34:26;;;;;;;15.73;10.98;;;;;;;6.99;100.00;98564.38;4167275;28;20037;-74
2023/04/16 06:36:27;;;;;;;15.20;10.10;;;;;;;6.94;100.00;98570.09;4162959;28;20048;-74
2023/04/16 06:38:28;;;;;;;14.30;10.15;;;;;;;6.91;100.00;98565.31;4160303;28;20088;-74
2023/04/16 06:40:28;;;;;;;14.40;9.35;;;;;;;6.94;100.00;98570.09;4164754;28;20041;-74
2023/04/16 06:42:28;;;;;;;17.05;10.38;;;;;;;6.87;100.00;98569.13;4162526;28;20695;-74
2023/04/16 06:44:29;;;;;;;15.43;11.05;;;;;;;6.93;100.00;98575.97;4162315;28;20112;-74
2023/04/16 06:46:29;;;;;;;16.10;10.65;;;;;;;6.94;100.00;98572.88;4163350;28;20038;-74
2023/04/16 06:48:30;;;;;;;15.43;10.90;;;;;;;6.95;100.00;98581.91;4162964;28;20033;-74
2023/04/16 06:50:30;;;;;;;19.35;11.77;;;;;;;6.90;100.00;98576.69;4163198;28;20046;-74
2023/04/16 06:52:30;;;;;;;16.48;11.02;;;;;;;6.95;100.00;98588.25;4161216;28;20041;-74
2023/04/16 06:54:31;;;;;;;17.45;12.52;;;;;;;6.94;100.00;98583.06;4160543;28;20117;-74
2023/04/16 06:56:31;;;;;;;17.75;10.07;;;;;;;6.93;100.00;98582.28;4162549;28;20072;-74
2023/04/16 06:58:32;;;;;;;15.02;9.98;;;;;;;6.96;100.00;98583.53;4162094;28;20049;-74
2023/04/16 07:00:32;;;;;;;15.90;11.02;;;;;;;6.99;100.00;98588.31;4162956;28;20061;-74
2023/04/16 07:02:32;;;;;;;16.55;10.25;;;;;;;6.98;100.00;98592.22;4163510;28;20127;-74
2023/04/16 07:04:33;;;;;;;17.83;11.32;;;;;;;6.97;100.00;98585.13;4165117;28;20110;-75
2023/04/16 07:06:33;;;;;;;15.40;11.35;;;;;;;6.93;100.00;98579.53;4163228;28;20044;-74
2023/04/16 07:08:33;;;;;;;16.27;10.90;;;;;;;6.99;100.00;98593.81;4164198;28;20136;-74
2023/04/16 07:10:34;;;;;;;17.98;12.23;;;;;;;6.96;100.00;98589.03;4165130;28;20158;-74
2023/04/16 07:12:34;;;;;;;17.13;10.82;;;;;;;6.97;100.00;98582.38;4161099;28;20049;-74
2023/04/16 07:14:35;;;;;;;20.08;15.23;;;;;;;6.98;100.00;98597.72;4161285;28;20057;-74
2023/04/16 07:16:36;;;;;;;15.23;11.82;;;;;;;7.02;100.00;98593.13;4163918;28;20042;-74
2023/04/16 07:18:36;;;;;;;20.08;9.98;;;;;;;7.06;100.00;98596.78;4162086;28;20127;-74
2023/04/16 07:20:37;;;;;;;15.60;11.10;;;;;;;7.03;100.00;98601.03;4161978;28;20064;-74
2023/04/16 07:22:37;;;;;;;16.85;11.38;;;;;;;7.06;100.00;98598.72;4159008;28;20469;-74
2023/04/16 07:24:37;;;;;;;16.48;11.13;;;;;;;7.10;100.00;98596.84;4165056;28;20378;-74
2023/04/16 07:26:38;;;;;;;16.23;11.43;;;;;;;7.09;100.00;98609.03;4164786;28;20083;-74
2023/04/16 07:28:38;;;;;;;14.43;11.10;;;;;;;7.14;100.00;98608.78;4161897;28;20068;-74
2023/04/16 07:30:38;;;;;;;21.27;13.13;;;;;;;7.11;100.00;98604.75;4163682;28;20478;-75
2023/04/16 07:32:39;;;;;;;20.67;14.68;;;;;;;7.10;100.00;98610.63;4161504;28;20041;-74
2023/04/16 07:34:39;;;;;;;20.70;12.57;;;;;;;7.09;100.00;98607.06;4162285;28;20124;-74
2023/04/16 07:36:40;;;;;;;22.42;15.15;;;;;;;7.10;100.00;98610.63;4163057;28;20092;-74
2023/04/16 07:38:40;;;;;;;23.67;20.13;;;;;;;7.14;100.00;98615.06;4144293;28;20046;-74
2023/04/16 07:40:42;;;;;;;24.85;17.45;;;;;;;7.14;100.00;98617.81;4162234;28;20393;-74
2023/04/16 07:42:42;;;;;;;29.08;18.88;;;;;;;7.18;100.00;98618.72;4161255;28;20052;-74
2023/04/16 07:44:43;;;;;;;36.58;22.92;;;;;;;7.20;100.00;98607.34;4160665;28;20041;-74
2023/04/16 07:46:43;;;;;;;24.77;17.08;;;;;;;7.25;100.00;98615.34;4160283;28;20040;-74
2023/04/16 07:48:43;;;;;;;18.25;13.02;;;;;;;7.30;100.00;98615.09;4161812;28;20136;-75
2023/04/16 07:50:44;;;;;;;28.30;22.27;;;;;;;7.28;100.00;98620.97;4161389;28;20110;-74
2023/04/16 07:52:45;;;;;;;33.10;26.90;;;;;;;7.32;100.00;98615.53;4160849;28;20045;-74
2023/04/16 07:54:46;;;;;;;23.17;19.23;;;;;;;7.37;100.00;98620.00;4158862;28;20065;-74
2023/04/16 07:56:46;;;;;;;17.33;13.70;;;;;;;7.35;100.00;98625.03;4162675;28;20041;-74
2023/04/16 07:58:46;;;;;;;14.60;11.10;;;;;;;7.31;100.00;98628.50;4161405;28;20513;-74
2023/04/16 08:00:47;;;;;;;13.98;10.15;;;;;;;7.29;100.00;98625.31;4160180;28;20053;-74
2023/04/16 08:02:47;;;;;;;13.90;10.95;;;;;;;7.24;100.00;98616.50;4162179;28;20041;-74
2023/04/16 08:04:47;;;;;;;19.95;13.40;;;;;;;7.29;100.00;98635.53;4164657;28;20404;-74
2023/04/16 08:06:48;;;;;;;15.73;12.88;;;;;;;7.29;100.00;98627.28;4159181;28;20042;-74
2023/04/16 08:08:48;;;;;;;15.70;12.43;;;;;;;7.35;100.00;98636.84;4159823;28;20112;-74
2023/04/16 08:10:49;;;;;;;15.18;10.32;;;;;;;7.36;100.00;98637.66;4158524;28;20159;-74
2023/04/16 08:12:49;;;;;;;13.00;9.18;;;;;;;7.40;100.00;98644.06;4160221;28;20056;-74
2023/04/16 08:14:49;;;;;;;13.88;10.00;;;;;;;7.37;100.00;98651.09;4158081;28;20049;-73
2023/04/16 08:16:50;;;;;;;14.10;9.45;;;;;;;7.38;100.00;98643.63;4161565;28;20046;-74
2023/04/16 08:18:50;;;;;;;13.45;9.75;;;;;;;7.26;100.00;98650.78;4159382;28;20091;-75
2023/04/16 08:20:50;;;;;;;14.55;9.60;;;;;;;7.31;100.00;98656.03;4158472;28;20079;-75
2023/04/16 08:22:53;;;;;;;14.70;10.02;;;;;;;7.34;100.00;98651.78;4158225;28;20437;-74
2023/04/16 08:24:54;;;;;;;17.83;13.05;;;;;;;7.25;100.00;98667.66;4160233;28;20057;-74
2023/04/16 08:26:54;;;;;;;15.23;11.40;;;;;;;7.25;100.00;98657.44;4164228;28;20477;-74
2023/04/16 08:28:54;;;;;;;15.43;12.45;;;;;;;7.26;100.00;98658.22;4158379;28;20540;-74
2023/04/16 08:30:55;;;;;;;15.23;11.55;;;;;;;7.24;100.00;98675.09;4160284;28;20045;-74
2023/04/16 08:32:55;;;;;;;13.15;9.77;;;;;;;7.26;100.00;98672.78;4160909;28;20555;-75
2023/04/16 08:34:56;;;;;;;11.20;9.02;;;;;;;7.32;100.00;98676.91;4143541;28;20066;-74
2023/04/16 08:36:56;;;;;;;14.38;10.48;;;;;;;7.34;100.00;98679.28;4159947;28;20049;-74
2023/04/16 08:38:57;;;;;;;15.48;10.43;;;;;;;7.34;100.00;98673.78;4160181;28;20045;-74
2023/04/16 08:41:02;;;;;;;13.00;10.40;;;;;;;7.36;100.00;98684.44;4159890;28;20033;-74
2023/04/16 08:43:05;;;;;;;14.55;8.70;;;;;;;7.33;100.00;98685.94;4158393;28;20104;-75
2023/04/16 08:45:10;;;;;;;12.32;8.38;;;;;;;7.33;100.00;98680.44;4159362;28;20429;-74
2023/04/16 08:47:11;;;;;;;10.90;8.27;;;;;;;7.44;100.00;98689.00;4159982;28;20049;-74
2023/04/16 08:49:19;;;;;;;10.73;8.65;;;;;;;7.41;100.00;98686.94;4159164;28;20049;-74
2023/04/16 08:51:22;;;;;;;10.75;7.72;;;;;;;7.39;100.00;98692.81;4158838;28;20478;-74
2023/04/16 08:53:34;;;;;;;12.25;8.05;;;;;;;7.47;100.00;98696.56;4159888;28;20052;-74
2023/04/16 08:55:36;;;;;;;13.48;9.43;;;;;;;7.40;100.00;98688.91;4160348;28;20053;-74
2023/04/16 08:57:56;;;;;;;14.48;10.18;;;;;;;7.47;100.00;98688.31;4159144;28;20847;-74
2023/04/16 08:59:57;;;;;;;12.88;9.27;;;;;;;7.53;100.00;98692.38;4159954;28;20056;-74
2023/04/16 09:01:58;;;;;;;9.68;7.55;;;;;;;7.56;100.00;98694.44;4163780;28;20053;-74
2023/04/16 09:04:02;;;;;;;13.90;8.85;;;;;;;7.59;100.00;98697.28;4175323;28;20505;-74
2023/04/16 09:06:03;;;;;;;11.80;7.82;;;;;;;7.58;100.00;98692.94;4158699;28;20474;-75
2023/04/16 09:08:05;;;;;;;11.32;7.85;;;;;;;7.64;100.00;98695.44;4159773;28;20045;-74
2023/04/16 09:10:06;;;;;;;12.82;8.80;;;;;;;7.59;100.00;98700.03;4159469;28;20099;-74
2023/04/16 09:12:07;;;;;;;12.00;8.50;;;;;;;7.64;100.00;98701.75;4158947;28;20428;-74
2023/04/16 09:14:10;;;;;;;17.38;11.80;;;;;;;7.61;100.00;98696.91;4159594;28;20116;-75
2023/04/16 09:16:11;;;;;;;14.15;10.25;;;;;;;7.60;100.00;98703.59;4159762;28;20083;-74